Driftwood, Washington
Current Conditions -  °F | °C
As of 3:28 PM on Tuesday 25 Nov 2014 (Local Time) from KTCM Reporting Station
Light Rain Light Rain  
Wind Chill: 57°   Ceiling: 800
Heat Index: 57°   Visibility: 8mi
Dew Point: 57°   Wind: 14mph
Humidity: 100%   Direction: 200°SSW
Pressure: 30.21"   Gusts: NA
Location:  47.1874°N, 122.164°W
Report Text: KTCM 252328Z AUTO 20012KT 8SM -RA BKN008 BKN012 OVC033 14/14 A3021 RMK AO2 RAE2257B2328 CIG 008V012 BKN008 V SCT $
Loading
Personal Weather Stations






























Interactive Weather Map New forecast layout! Learn more

10-Day Weather Forecast

Advertisements
Track Severe Weather on mobile